Rossie, New York
Current Conditions -  °F | °C
As of 11:58 AM on Wednesday 26 Nov 2014 (Local Time) from KGTB Reporting Station
Broken Clouds Broken Clouds  
Wind Chill: 22°   Ceiling: 3300
Heat Index: 30°   Visibility: 10mi
Dew Point: 22°   Wind: 9mph
Humidity: 72%   Direction: 30°NNE
Pressure: 30.16"   Gusts: NA
Location:  44.435°N, 75.6656°W
Report Text: KGTB 261658Z AUTO 03008KT 10SM BKN033 M01/M06 A3016 RMK AO2 SLP222 T10111056
Loading
Personal Weather Stations






























Interactive Weather Map New forecast layout! Learn more

10-Day Weather Forecast

Advertisements
Track Severe Weather on mobile